sensor_id;sensor_type;location;lat;lon;timestamp;pressure;altitude;pressure_sealevel;temperature;humidity
42385;BME280;28042;43.986;22.860;2022-10-24T00:00:42;101824.97;;;11.14;89.67
42385;BME280;28042;43.986;22.860;2022-10-24T00:03:08;101750.66;;;10.71;89.78
42385;BME280;28042;43.986;22.860;2022-10-24T00:05:34;101820.00;;;11.09;89.80
42385;BME280;28042;43.986;22.860;2022-10-24T00:07:59;101778.94;;;10.86;90.00
42385;BME280;28042;43.986;22.860;2022-10-24T00:10:25;101780.31;;;10.82;89.94
42385;BME280;28042;43.986;22.860;2022-10-24T00:12:52;101811.84;;;11.01;89.92
42385;BME280;28042;43.986;22.860;2022-10-24T00:15:18;101815.94;;;11.05;90.36
42385;BME280;28042;43.986;22.860;2022-10-24T00:17:44;101805.22;;;10.95;90.18
42385;BME280;28042;43.986;22.860;2022-10-24T00:20:10;101812.84;;;11.00;90.19
42385;BME280;28042;43.986;22.860;2022-10-24T00:22:35;101814.91;;;10.98;90.85
42385;BME280;28042;43.986;22.860;2022-10-24T00:25:01;101808.25;;;10.92;90.43
42385;BME280;28042;43.986;22.860;2022-10-24T00:27:26;101814.75;;;10.91;90.89
42385;BME280;28042;43.986;22.860;2022-10-24T00:29:52;101766.50;;;10.67;92.16
42385;BME280;28042;43.986;22.860;2022-10-24T00:32:17;101804.84;;;10.90;92.23
42385;BME280;28042;43.986;22.860;2022-10-24T00:34:43;101791.22;;;10.82;92.30
42385;BME280;28042;43.986;22.860;2022-10-24T00:37:08;101747.94;;;10.63;92.59
42385;BME280;28042;43.986;22.860;2022-10-24T00:39:33;101772.13;;;10.74;92.82
42385;BME280;28042;43.986;22.860;2022-10-24T00:41:59;101804.19;;;10.80;93.70
42385;BME280;28042;43.986;22.860;2022-10-24T00:44:27;101784.94;;;10.65;94.80
42385;BME280;28042;43.986;22.860;2022-10-24T00:46:58;101793.97;;;10.66;96.05
42385;BME280;28042;43.986;22.860;2022-10-24T00:49:28;101751.69;;;10.45;96.36
42385;BME280;28042;43.986;22.860;2022-10-24T00:52:00;101740.09;;;10.52;96.26
42385;BME280;28042;43.986;22.860;2022-10-24T00:54:27;101732.41;;;10.47;95.30
42385;BME280;28042;43.986;22.860;2022-10-24T00:56:59;101796.31;;;10.85;95.41
42385;BME280;28042;43.986;22.860;2022-10-24T00:59:26;101736.00;;;10.64;95.11
42385;BME280;28042;43.986;22.860;2022-10-24T01:01:52;101771.09;;;10.83;94.62
42385;BME280;28042;43.986;22.860;2022-10-24T01:04:18;101782.34;;;10.88;94.88
42385;BME280;28042;43.986;22.860;2022-10-24T01:09:36;101792.25;;;10.89;94.36
42385;BME280;28042;43.986;22.860;2022-10-24T01:20:53;101801.78;;;10.85;96.12
42385;BME280;28042;43.986;22.860;2022-10-24T01:34:08;101797.16;;;11.02;94.45
42385;BME280;28042;43.986;22.860;2022-10-24T01:36:44;101799.00;;;11.10;94.65
42385;BME280;28042;43.986;22.860;2022-10-24T01:39:18;101787.94;;;11.03;94.84
42385;BME280;28042;43.986;22.860;2022-10-24T01:41:46;101797.31;;;11.09;94.86
42385;BME280;28042;43.986;22.860;2022-10-24T01:44:23;101782.63;;;11.10;94.44
42385;BME280;28042;43.986;22.860;2022-10-24T01:46:55;101726.41;;;10.76;94.10
42385;BME280;28042;43.986;22.860;2022-10-24T01:49:25;101783.00;;;11.07;94.19
42385;BME280;28042;43.986;22.860;2022-10-24T01:51:55;101726.75;;;10.73;94.29
42385;BME280;28042;43.986;22.860;2022-10-24T01:54:23;101685.88;;;10.48;94.27
42385;BME280;28042;43.986;22.860;2022-10-24T01:56:50;101768.50;;;10.98;94.84
42385;BME280;28042;43.986;22.860;2022-10-24T02:01:51;101738.00;;;10.86;94.79
42385;BME280;28042;43.986;22.860;2022-10-24T02:04:17;101784.69;;;11.08;94.41
42385;BME280;28042;43.986;22.860;2022-10-24T02:06:45;101719.06;;;10.68;95.08
42385;BME280;28042;43.986;22.860;2022-10-24T02:09:15;101736.47;;;10.75;94.80
42385;BME280;28042;43.986;22.860;2022-10-24T02:11:44;101743.13;;;10.73;95.35
42385;BME280;28042;43.986;22.860;2022-10-24T02:14:27;101798.34;;;11.08;95.35
42385;BME280;28042;43.986;22.860;2022-10-24T02:16:55;101728.81;;;10.71;95.61
42385;BME280;28042;43.986;22.860;2022-10-24T02:19:21;101789.13;;;11.09;95.63
42385;BME280;28042;43.986;22.860;2022-10-24T02:22:05;101784.31;;;11.11;95.43
42385;BME280;28042;43.986;22.860;2022-10-24T02:24:50;101745.00;;;10.81;96.40
42385;BME280;28042;43.986;22.860;2022-10-24T02:27:23;101780.63;;;10.95;96.34
42385;BME280;28042;43.986;22.860;2022-10-24T02:29:58;101743.81;;;10.67;97.48
42385;BME280;28042;43.986;22.860;2022-10-24T02:32:31;101788.13;;;10.93;97.64
42385;BME280;28042;43.986;22.860;2022-10-24T02:34:59;101783.03;;;10.90;97.80
42385;BME280;28042;43.986;22.860;2022-10-24T02:37:28;101791.91;;;10.76;97.98
42385;BME280;28042;43.986;22.860;2022-10-24T02:39:55;101750.66;;;10.55;98.60
42385;BME280;28042;43.986;22.860;2022-10-24T02:42:24;101744.53;;;10.61;98.33
42385;BME280;28042;43.986;22.860;2022-10-24T02:44:52;101745.88;;;10.65;98.23
42385;BME280;28042;43.986;22.860;2022-10-24T02:47:20;101770.78;;;10.78;97.91
42385;BME280;28042;43.986;22.860;2022-10-24T02:49:47;101771.44;;;10.80;98.57
42385;BME280;28042;43.986;22.860;2022-10-24T02:52:13;101766.84;;;10.81;98.71
42385;BME280;28042;43.986;22.860;2022-10-24T02:54:39;101769.03;;;10.85;98.15
42385;BME280;28042;43.986;22.860;2022-10-24T02:57:04;101731.03;;;10.59;98.43
42385;BME280;28042;43.986;22.860;2022-10-24T02:59:30;101778.22;;;10.92;97.67
42385;BME280;28042;43.986;22.860;2022-10-24T03:01:56;101789.81;;;10.94;97.44
42385;BME280;28042;43.986;22.860;2022-10-24T03:04:22;101753.19;;;10.72;97.49
42385;BME280;28042;43.986;22.860;2022-10-24T03:06:48;101741.25;;;10.65;97.42
42385;BME280;28042;43.986;22.860;2022-10-24T03:09:13;101786.44;;;10.84;97.89
42385;BME280;28042;43.986;22.860;2022-10-24T03:11:39;101796.84;;;10.89;98.06
42385;BME280;28042;43.986;22.860;2022-10-24T03:14:05;101781.84;;;10.76;98.14
42385;BME280;28042;43.986;22.860;2022-10-24T03:16:30;101804.19;;;10.80;98.52
42385;BME280;28042;43.986;22.860;2022-10-24T03:18:56;101795.34;;;10.78;98.90
42385;BME280;28042;43.986;22.860;2022-10-24T03:21:22;101797.69;;;10.89;98.84
42385;BME280;28042;43.986;22.860;2022-10-24T03:23:47;101780.66;;;10.87;98.18
42385;BME280;28042;43.986;22.860;2022-10-24T03:26:13;101806.91;;;10.96;97.28
42385;BME280;28042;43.986;22.860;2022-10-24T03:28:38;101800.41;;;10.97;97.46
42385;BME280;28042;43.986;22.860;2022-10-24T03:31:04;101803.31;;;11.04;97.02
42385;BME280;28042;43.986;22.860;2022-10-24T03:33:29;101746.53;;;10.75;96.87
42385;BME280;28042;43.986;22.860;2022-10-24T03:35:55;101765.31;;;10.86;95.71
42385;BME280;28042;43.986;22.860;2022-10-24T03:38:22;101799.19;;;11.16;96.00
42385;BME280;28042;43.986;22.860;2022-10-24T03:40:48;101795.22;;;11.19;95.24
42385;BME280;28042;43.986;22.860;2022-10-24T03:43:14;101811.28;;;11.30;94.97
42385;BME280;28042;43.986;22.860;2022-10-24T03:45:39;101807.34;;;11.24;95.66
42385;BME280;28042;43.986;22.860;2022-10-24T03:48:05;101816.22;;;11.26;95.48
42385;BME280;28042;43.986;22.860;2022-10-24T03:50:31;101772.94;;;10.99;95.53
42385;BME280;28042;43.986;22.860;2022-10-24T03:52:58;101746.88;;;10.88;95.50
42385;BME280;28042;43.986;22.860;2022-10-24T03:55:23;101809.22;;;11.24;95.50
42385;BME280;28042;43.986;22.860;2022-10-24T03:57:49;101750.94;;;10.92;95.87
42385;BME280;28042;43.986;22.860;2022-10-24T04:00:14;101811.75;;;11.33;96.00
42385;BME280;28042;43.986;22.860;2022-10-24T04:02:40;101774.16;;;10.96;96.01
42385;BME280;28042;43.986;22.860;2022-10-24T04:05:06;101822.19;;;11.30;96.18
42385;BME280;28042;43.986;22.860;2022-10-24T04:07:32;101833.13;;;11.22;96.87
42385;BME280;28042;43.986;22.860;2022-10-24T04:09:57;101774.16;;;10.88;97.37
42385;BME280;28042;43.986;22.860;2022-10-24T04:12:23;101820.50;;;11.21;96.95
42385;BME280;28042;43.986;22.860;2022-10-24T04:14:49;101828.16;;;11.33;97.12
42385;BME280;28042;43.986;22.860;2022-10-24T04:17:15;101803.44;;;11.19;96.96
42385;BME280;28042;43.986;22.860;2022-10-24T04:19:40;101824.00;;;11.46;96.17
42385;BME280;28042;43.986;22.860;2022-10-24T04:22:05;101811.34;;;11.53;95.41
42385;BME280;28042;43.986;22.860;2022-10-24T04:24:31;101778.09;;;11.41;94.58
42385;BME280;28042;43.986;22.860;2022-10-24T04:26:57;101826.47;;;11.72;94.18
42385;BME280;28042;43.986;22.860;2022-10-24T04:29:22;101775.03;;;11.36;94.22
42385;BME280;28042;43.986;22.860;2022-10-24T04:31:48;101771.66;;;11.26;93.66
42385;BME280;28042;43.986;22.860;2022-10-24T04:34:13;101828.47;;;11.47;94.02
42385;BME280;28042;43.986;22.860;2022-10-24T04:36:39;101822.84;;;11.40;94.70
42385;BME280;28042;43.986;22.860;2022-10-24T04:39:05;101807.53;;;11.23;94.69
42385;BME280;28042;43.986;22.860;2022-10-24T04:41:30;101767.66;;;10.97;95.01
42385;BME280;28042;43.986;22.860;2022-10-24T04:43:56;101825.28;;;11.19;95.68
42385;BME280;28042;43.986;22.860;2022-10-24T04:46:21;101775.84;;;10.89;96.57
42385;BME280;28042;43.986;22.860;2022-10-24T04:48:47;101796.50;;;10.92;96.91
42385;BME280;28042;43.986;22.860;2022-10-24T04:51:12;101759.00;;;10.69;97.81
42385;BME280;28042;43.986;22.860;2022-10-24T04:53:38;101756.78;;;10.65;98.58
42385;BME280;28042;43.986;22.860;2022-10-24T04:56:04;101815.13;;;10.80;98.88
42385;BME280;28042;43.986;22.860;2022-10-24T04:58:29;101771.81;;;10.44;100.00
42385;BME280;28042;43.986;22.860;2022-10-24T05:00:55;101816.16;;;10.63;100.00
42385;BME280;28042;43.986;22.860;2022-10-24T05:03:20;101795.34;;;10.45;100.00
42385;BME280;28042;43.986;22.860;2022-10-24T05:05:47;101772.00;;;10.35;100.00
42385;BME280;28042;43.986;22.860;2022-10-24T05:08:13;101800.97;;;10.52;100.00
42385;BME280;28042;43.986;22.860;2022-10-24T05:10:39;101822.09;;;10.58;100.00
42385;BME280;28042;43.986;22.860;2022-10-24T05:13:04;101777.63;;;10.25;100.00
42385;BME280;28042;43.986;22.860;2022-10-24T05:15:30;101823.97;;;10.50;100.00
42385;BME280;28042;43.986;22.860;2022-10-24T05:17:57;101783.53;;;10.20;100.00
42385;BME280;28042;43.986;22.860;2022-10-24T05:20:23;101797.50;;;10.09;100.00
42385;BME280;28042;43.986;22.860;2022-10-24T05:22:48;101790.47;;;10.07;100.00
42385;BME280;28042;43.986;22.860;2022-10-24T05:25:14;101775.16;;;10.06;100.00
42385;BME280;28042;43.986;22.860;2022-10-24T05:27:40;101822.97;;;10.42;100.00
42385;BME280;28042;43.986;22.860;2022-10-24T05:30:06;101790.91;;;10.28;100.00
42385;BME280;28042;43.986;22.860;2022-10-24T05:32:32;101807.94;;;10.38;100.00
42385;BME280;28042;43.986;22.860;2022-10-24T05:34:58;101864.91;;;10.74;100.00
42385;BME280;28042;43.986;22.860;2022-10-24T05:37:23;101868.16;;;10.86;99.23
42385;BME280;28042;43.986;22.860;2022-10-24T05:39:49;101868.31;;;10.92;99.46
42385;BME280;28042;43.986;22.860;2022-10-24T05:42:14;101831.81;;;10.77;98.36
42385;BME280;28042;43.986;22.860;2022-10-24T05:44:40;101864.56;;;11.10;97.19
42385;BME280;28042;43.986;22.860;2022-10-24T05:47:06;101828.03;;;10.94;97.40
42385;BME280;28042;43.986;22.860;2022-10-24T05:49:32;101845.59;;;11.16;96.50
42385;BME280;28042;43.986;22.860;2022-10-24T05:51:57;101869.97;;;11.34;95.78
42385;BME280;28042;43.986;22.860;2022-10-24T05:54:23;101813.03;;;11.07;95.71
42385;BME280;28042;43.986;22.860;2022-10-24T05:56:48;101836.50;;;11.40;94.59
42385;BME280;28042;43.986;22.860;2022-10-24T05:59:14;101866.66;;;11.55;93.67
42385;BME280;28042;43.986;22.860;2022-10-24T06:01:39;101865.47;;;11.66;93.42
42385;BME280;28042;43.986;22.860;2022-10-24T06:04:05;101810.91;;;11.33;92.71
42385;BME280;28042;43.986;22.860;2022-10-24T06:06:31;101862.91;;;11.64;92.71
42385;BME280;28042;43.986;22.860;2022-10-24T06:08:59;101870.19;;;11.80;92.32
42385;BME280;28042;43.986;22.860;2022-10-24T06:11:24;101881.78;;;11.90;92.05
42385;BME280;28042;43.986;22.860;2022-10-24T06:13:49;101821.25;;;11.54;92.08
42385;BME280;28042;43.986;22.860;2022-10-24T06:16:15;101862.34;;;11.69;92.81
42385;BME280;28042;43.986;22.860;2022-10-24T06:18:40;101901.56;;;12.00;92.92
42385;BME280;28042;43.986;22.860;2022-10-24T06:21:07;101892.56;;;12.23;92.13
42385;BME280;28042;43.986;22.860;2022-10-24T06:23:34;101857.09;;;12.06;90.37
42385;BME280;28042;43.986;22.860;2022-10-24T06:26:00;101893.97;;;12.41;88.59
42385;BME280;28042;43.986;22.860;2022-10-24T06:28:26;101902.28;;;12.56;88.53
42385;BME280;28042;43.986;22.860;2022-10-24T06:30:52;101888.13;;;12.53;87.94
42385;BME280;28042;43.986;22.860;2022-10-24T06:33:20;101845.56;;;12.42;87.40
42385;BME280;28042;43.986;22.860;2022-10-24T06:35:46;101875.69;;;12.88;86.64
42385;BME280;28042;43.986;22.860;2022-10-24T06:38:12;101845.81;;;12.78;85.79
42385;BME280;28042;43.986;22.860;2022-10-24T06:40:37;101848.66;;;12.85;85.44
42385;BME280;28042;43.986;22.860;2022-10-24T06:43:05;101868.19;;;13.05;85.69
42385;BME280;28042;43.986;22.860;2022-10-24T06:45:31;101868.44;;;13.33;84.84
42385;BME280;28042;43.986;22.860;2022-10-24T06:47:56;101885.38;;;13.51;84.22
42385;BME280;28042;43.986;22.860;2022-10-24T06:50:22;101893.31;;;13.61;83.79
42385;BME280;28042;43.986;22.860;2022-10-24T06:52:47;101852.09;;;13.54;82.77
42385;BME280;28042;43.986;22.860;2022-10-24T06:55:13;101871.09;;;13.85;80.87
42385;BME280;28042;43.986;22.860;2022-10-24T06:57:38;101848.41;;;13.91;79.77
42385;BME280;28042;43.986;22.860;2022-10-24T07:00:04;101900.34;;;14.29;78.38
42385;BME280;28042;43.986;22.860;2022-10-24T07:02:31;101899.66;;;14.41;77.85
42385;BME280;28042;43.986;22.860;2022-10-24T07:04:57;101904.41;;;14.48;77.36
42385;BME280;28042;43.986;22.860;2022-10-24T07:07:23;101905.13;;;14.41;77.36
42385;BME280;28042;43.986;22.860;2022-10-24T07:09:53;101908.72;;;14.57;76.96
42385;BME280;28042;43.986;22.860;2022-10-24T07:12:23;101903.50;;;14.62;76.32
42385;BME280;28042;43.986;22.860;2022-10-24T07:14:49;101851.47;;;14.39;75.70
42385;BME280;28042;43.986;22.860;2022-10-24T07:17:15;101886.91;;;14.70;76.32
42385;BME280;28042;43.986;22.860;2022-10-24T07:19:41;101846.75;;;14.69;74.38
42385;BME280;28042;43.986;22.860;2022-10-24T07:22:06;101891.59;;;14.97;73.92
42385;BME280;28042;43.986;22.860;2022-10-24T07:24:32;101898.75;;;15.20;73.38
42385;BME280;28042;43.986;22.860;2022-10-24T07:26:58;101834.69;;;14.91;72.84
42385;BME280;28042;43.986;22.860;2022-10-24T07:29:24;101880.06;;;15.09;72.88
42385;BME280;28042;43.986;22.860;2022-10-24T07:31:49;101862.31;;;15.11;72.96
42385;BME280;28042;43.986;22.860;2022-10-24T07:34:16;101880.19;;;15.22;73.09
42385;BME280;28042;43.986;22.860;2022-10-24T07:36:41;101897.59;;;15.29;72.66
42385;BME280;28042;43.986;22.860;2022-10-24T07:39:07;101839.03;;;15.07;72.08
42385;BME280;28042;43.986;22.860;2022-10-24T07:41:35;101832.88;;;15.33;71.82
42385;BME280;28042;43.986;22.860;2022-10-24T07:44:01;101879.31;;;15.77;70.79
42385;BME280;28042;43.986;22.860;2022-10-24T07:46:27;101890.34;;;15.84;70.83
42385;BME280;28042;43.986;22.860;2022-10-24T07:48:53;101867.53;;;15.90;70.23
42385;BME280;28042;43.986;22.860;2022-10-24T07:51:20;101880.34;;;16.18;69.26
42385;BME280;28042;43.986;22.860;2022-10-24T07:53:46;101877.41;;;16.32;68.33
42385;BME280;28042;43.986;22.860;2022-10-24T07:56:13;101869.41;;;16.37;67.58
42385;BME280;28042;43.986;22.860;2022-10-24T07:58:41;101870.50;;;16.56;66.85
42385;BME280;28042;43.986;22.860;2022-10-24T08:01:10;101880.34;;;16.79;66.36
42385;BME280;28042;43.986;22.860;2022-10-24T08:03:36;101822.66;;;16.71;65.33
42385;BME280;28042;43.986;22.860;2022-10-24T08:06:07;101870.38;;;16.91;65.30
42385;BME280;28042;43.986;22.860;2022-10-24T08:08:33;101874.63;;;17.00;64.92
42385;BME280;28042;43.986;22.860;2022-10-24T08:10:59;101825.78;;;16.48;65.13
42385;BME280;28042;43.986;22.860;2022-10-24T08:13:24;101865.03;;;16.76;64.85
42385;BME280;28042;43.986;22.860;2022-10-24T08:15:50;101854.47;;;16.86;64.12
42385;BME280;28042;43.986;22.860;2022-10-24T08:18:16;101844.00;;;16.55;64.46
42385;BME280;28042;43.986;22.860;2022-10-24T08:20:41;101874.63;;;16.87;64.07
42385;BME280;28042;43.986;22.860;2022-10-24T08:23:07;101868.66;;;17.10;63.34
42385;BME280;28042;43.986;22.860;2022-10-24T08:25:32;101844.28;;;17.00;62.84
42385;BME280;28042;43.986;22.860;2022-10-24T08:27:58;101860.63;;;16.95;63.58
42385;BME280;28042;43.986;22.860;2022-10-24T08:30:24;101864.22;;;17.15;63.24
42385;BME280;28042;43.986;22.860;2022-10-24T08:32:49;101851.28;;;17.09;62.98
42385;BME280;28042;43.986;22.860;2022-10-24T08:35:17;101856.38;;;17.12;63.83
42385;BME280;28042;43.986;22.860;2022-10-24T08:37:42;101840.66;;;17.19;62.77
42385;BME280;28042;43.986;22.860;2022-10-24T08:40:17;101816.09;;;16.98;63.36
42385;BME280;28042;43.986;22.860;2022-10-24T08:42:43;101840.22;;;17.36;62.34
42385;BME280;28042;43.986;22.860;2022-10-24T08:45:21;101804.78;;;17.39;61.59
42385;BME280;28042;43.986;22.860;2022-10-24T08:48:00;101846.53;;;17.83;60.71
42385;BME280;28042;43.986;22.860;2022-10-24T08:50:32;101840.16;;;17.82;60.47
42385;BME280;28042;43.986;22.860;2022-10-24T08:55:48;101838.16;;;17.96;59.69
42385;BME280;28042;43.986;22.860;2022-10-24T08:58:20;101803.97;;;17.97;59.61
42385;BME280;28042;43.986;22.860;2022-10-24T09:00:49;101841.31;;;18.06;59.16
42385;BME280;28042;43.986;22.860;2022-10-24T09:03:31;101855.56;;;18.03;59.21
42385;BME280;28042;43.986;22.860;2022-10-24T09:06:02;101844.84;;;18.26;58.84
42385;BME280;28042;43.986;22.860;2022-10-24T09:11:13;101847.50;;;18.40;58.40
42385;BME280;28042;43.986;22.860;2022-10-24T09:13:41;101842.34;;;18.50;58.51
42385;BME280;28042;43.986;22.860;2022-10-24T09:16:13;101831.28;;;18.50;58.11
42385;BME280;28042;43.986;22.860;2022-10-24T09:18:43;101833.88;;;18.45;58.31
42385;BME280;28042;43.986;22.860;2022-10-24T09:21:12;101833.03;;;18.44;58.39
42385;BME280;28042;43.986;22.860;2022-10-24T09:23:40;101783.31;;;18.44;57.72
42385;BME280;28042;43.986;22.860;2022-10-24T09:26:13;101821.94;;;18.51;58.27
42385;BME280;28042;43.986;22.860;2022-10-24T09:28:40;101782.63;;;18.17;58.49
42385;BME280;28042;43.986;22.860;2022-10-24T09:31:19;101826.06;;;18.73;57.93
42385;BME280;28042;43.986;22.860;2022-10-24T09:33:47;101781.44;;;18.63;57.15
42385;BME280;28042;43.986;22.860;2022-10-24T09:36:16;101817.94;;;18.78;57.46
42385;BME280;28042;43.986;22.860;2022-10-24T09:38:43;101813.53;;;18.96;57.00
42385;BME280;28042;43.986;22.860;2022-10-24T09:41:22;101821.72;;;18.84;57.75
42385;BME280;28042;43.986;22.860;2022-10-24T09:43:51;101766.13;;;18.67;57.43
42385;BME280;28042;43.986;22.860;2022-10-24T09:46:37;101751.59;;;18.78;56.82
42385;BME280;28042;43.986;22.860;2022-10-24T09:51:50;101797.19;;;19.37;55.75
42385;BME280;28042;43.986;22.860;2022-10-24T09:54:26;101758.28;;;19.32;55.27
42385;BME280;28042;43.986;22.860;2022-10-24T09:57:02;101793.13;;;19.76;54.97
42385;BME280;28042;43.986;22.860;2022-10-24T09:59:57;101804.44;;;19.57;55.32
42385;BME280;28042;43.986;22.860;2022-10-24T10:02:29;101792.44;;;19.63;55.05
42385;BME280;28042;43.986;22.860;2022-10-24T10:07:31;101793.34;;;19.93;54.29
42385;BME280;28042;43.986;22.860;2022-10-24T10:10:27;101779.72;;;20.22;53.61
42385;BME280;28042;43.986;22.860;2022-10-24T10:18:01;101780.47;;;20.29;52.97
42385;BME280;28042;43.986;22.860;2022-10-24T10:20:38;101728.00;;;19.74;53.38
42385;BME280;28042;43.986;22.860;2022-10-24T10:23:30;101771.06;;;20.30;52.79
42385;BME280;28042;43.986;22.860;2022-10-24T10:26:26;101771.13;;;20.42;52.27
42385;BME280;28042;43.986;22.860;2022-10-24T10:29:20;101755.78;;;20.39;52.33
42385;BME280;28042;43.986;22.860;2022-10-24T10:31:57;101767.66;;;20.46;52.44
42385;BME280;28042;43.986;22.860;2022-10-24T10:37:47;101711.03;;;20.24;52.07
42385;BME280;28042;43.986;22.860;2022-10-24T10:40:31;101758.56;;;20.69;51.69
42385;BME280;28042;43.986;22.860;2022-10-24T10:43:26;101764.34;;;20.79;51.34
42385;BME280;28042;43.986;22.860;2022-10-24T10:46:03;101764.59;;;20.89;51.08
42385;BME280;28042;43.986;22.860;2022-10-24T11:02:30;101695.72;;;20.51;50.63
42385;BME280;28042;43.986;22.860;2022-10-24T11:05:30;101749.38;;;20.92;50.47
42385;BME280;28042;43.986;22.860;2022-10-24T11:10:54;101743.47;;;21.47;48.54
42385;BME280;28042;43.986;22.860;2022-10-24T11:13:30;101741.91;;;21.80;48.30
42385;BME280;28042;43.986;22.860;2022-10-24T11:16:02;101741.16;;;21.44;47.87
42385;BME280;28042;43.986;22.860;2022-10-24T11:18:33;101731.16;;;21.20;48.69
42385;BME280;28042;43.986;22.860;2022-10-24T11:32:22;101706.47;;;21.87;46.85
42385;BME280;28042;43.986;22.860;2022-10-24T11:35:06;101716.59;;;22.21;46.23
42385;BME280;28042;43.986;22.860;2022-10-24T11:37:40;101710.91;;;22.45;45.77
42385;BME280;28042;43.986;22.860;2022-10-24T11:40:12;101702.31;;;22.29;45.50
42385;BME280;28042;43.986;22.860;2022-10-24T11:45:52;101690.16;;;22.69;45.24
42385;BME280;28042;43.986;22.860;2022-10-24T11:53:42;101636.78;;;22.34;44.93
42385;BME280;28042;43.986;22.860;2022-10-24T11:59:00;101662.16;;;22.93;44.22
42385;BME280;28042;43.986;22.860;2022-10-24T12:13:40;101635.63;;;22.68;44.24
42385;BME280;28042;43.986;22.860;2022-10-24T12:19:14;101626.84;;;22.76;44.30
42385;BME280;28042;43.986;22.860;2022-10-24T12:21:50;101620.94;;;22.90;44.08
42385;BME280;28042;43.986;22.860;2022-10-24T12:24:27;101569.09;;;22.67;43.56
42385;BME280;28042;43.986;22.860;2022-10-24T12:27:02;101604.66;;;22.81;43.50
42385;BME280;28042;43.986;22.860;2022-10-24T12:29:33;101611.56;;;22.79;43.94
42385;BME280;28042;43.986;22.860;2022-10-24T12:32:23;101606.28;;;22.77;43.49
42385;BME280;28042;43.986;22.860;2022-10-24T12:34:57;101602.56;;;22.89;43.22
42385;BME280;28042;43.986;22.860;2022-10-24T12:39:51;101579.22;;;22.73;43.59
42385;BME280;28042;43.986;22.860;2022-10-24T12:53:41;101536.97;;;22.54;44.13
42385;BME280;28042;43.986;22.860;2022-10-24T12:56:23;101593.19;;;22.95;43.75
42385;BME280;28042;43.986;22.860;2022-10-24T12:59:18;101584.38;;;23.03;43.94
42385;BME280;28042;43.986;22.860;2022-10-24T13:01:45;101578.25;;;22.62;44.36
42385;BME280;28042;43.986;22.860;2022-10-24T13:15:52;101574.22;;;23.13;43.90
42385;BME280;28042;43.986;22.860;2022-10-24T13:21:30;101562.03;;;22.98;44.14
42385;BME280;28042;43.986;22.860;2022-10-24T13:31:51;101563.28;;;23.07;44.03
42385;BME280;28042;43.986;22.860;2022-10-24T13:36:58;101527.97;;;22.86;44.43
42385;BME280;28042;43.986;22.860;2022-10-24T13:39:28;101508.75;;;22.67;44.31
42385;BME280;28042;43.986;22.860;2022-10-24T13:41:58;101535.50;;;22.90;44.17
42385;BME280;28042;43.986;22.860;2022-10-24T13:44:42;101547.75;;;23.11;43.93
42385;BME280;28042;43.986;22.860;2022-10-24T13:49:50;101543.53;;;23.08;44.32
42385;BME280;28042;43.986;22.860;2022-10-24T13:56:04;101532.00;;;22.78;44.93
42385;BME280;28042;43.986;22.860;2022-10-24T13:58:41;101518.59;;;22.53;45.87
42385;BME280;28042;43.986;22.860;2022-10-24T14:01:20;101534.84;;;22.61;45.60
42385;BME280;28042;43.986;22.860;2022-10-24T14:03:47;101511.34;;;22.52;46.15
42385;BME280;28042;43.986;22.860;2022-10-24T14:06:13;101529.84;;;22.63;45.76
42385;BME280;28042;43.986;22.860;2022-10-24T14:08:44;101532.56;;;22.58;45.61
42385;BME280;28042;43.986;22.860;2022-10-24T14:11:15;101523.94;;;22.38;46.14
42385;BME280;28042;43.986;22.860;2022-10-24T14:13:53;101521.16;;;22.38;46.34
42385;BME280;28042;43.986;22.860;2022-10-24T14:16:37;101506.69;;;22.36;45.82
42385;BME280;28042;43.986;22.860;2022-10-24T14:21:39;101475.72;;;21.93;46.43
42385;BME280;28042;43.986;22.860;2022-10-24T14:24:08;101480.97;;;21.90;47.11
42385;BME280;28042;43.986;22.860;2022-10-24T14:26:39;101522.28;;;22.03;47.22
42385;BME280;28042;43.986;22.860;2022-10-24T14:31:59;101517.72;;;21.97;47.50
42385;BME280;28042;43.986;22.860;2022-10-24T14:34:26;101519.34;;;21.93;47.85
42385;BME280;28042;43.986;22.860;2022-10-24T14:36:52;101461.28;;;21.41;48.27
42385;BME280;28042;43.986;22.860;2022-10-24T14:39:21;101471.19;;;21.37;48.90
42385;BME280;28042;43.986;22.860;2022-10-24T14:41:51;101520.84;;;21.50;49.40
42385;BME280;28042;43.986;22.860;2022-10-24T14:44:19;101501.13;;;21.35;49.77
42385;BME280;28042;43.986;22.860;2022-10-24T14:46:45;101512.75;;;21.32;50.09
42385;BME280;28042;43.986;22.860;2022-10-24T14:49:21;101506.97;;;21.22;50.77
42385;BME280;28042;43.986;22.860;2022-10-24T14:51:49;101510.78;;;21.04;51.40
42385;BME280;28042;43.986;22.860;2022-10-24T14:54:22;101462.19;;;20.73;52.05
42385;BME280;28042;43.986;22.860;2022-10-24T14:56:49;101486.03;;;20.74;52.54
42385;BME280;28042;43.986;22.860;2022-10-24T14:59:32;101509.19;;;20.79;53.23
42385;BME280;28042;43.986;22.860;2022-10-24T15:04:42;101455.44;;;20.17;55.34
42385;BME280;28042;43.986;22.860;2022-10-24T15:07:35;101502.03;;;20.20;55.79
42385;BME280;28042;43.986;22.860;2022-10-24T15:10:32;101502.41;;;20.12;56.17
42385;BME280;28042;43.986;22.860;2022-10-24T15:13:16;101494.47;;;19.92;57.33
42385;BME280;28042;43.986;22.860;2022-10-24T15:18:33;101505.75;;;19.67;58.80
42385;BME280;28042;43.986;22.860;2022-10-24T15:21:16;101448.59;;;19.19;59.96
42385;BME280;28042;43.986;22.860;2022-10-24T15:23:49;101488.06;;;19.26;61.07
42385;BME280;28042;43.986;22.860;2022-10-24T15:26:34;101499.44;;;19.18;61.53